createdAt,value
2022-07-28T00:01:13.846Z,99.90
2022-07-28T00:03:41.758Z,99.90
2022-07-28T00:06:10.033Z,99.90
2022-07-28T00:08:39.054Z,99.90
2022-07-28T00:11:06.862Z,99.90
2022-07-28T00:13:34.731Z,99.90
2022-07-28T00:16:02.651Z,99.90
2022-07-28T00:18:30.599Z,99.90
2022-07-28T00:20:59.986Z,99.90
2022-07-28T00:23:38.890Z,99.90
2022-07-28T00:26:09.022Z,99.90
2022-07-28T00:28:37.082Z,99.90
2022-07-28T00:31:06.995Z,99.90
2022-07-28T00:33:37.283Z,99.90
2022-07-28T00:36:05.356Z,99.90
2022-07-28T00:38:35.230Z,99.90
2022-07-28T00:41:12.366Z,99.90
2022-07-28T00:43:45.872Z,99.90
2022-07-28T00:46:16.218Z,99.90
2022-07-28T00:48:46.501Z,99.90
2022-07-28T00:51:16.834Z,99.90
2022-07-28T00:53:45.475Z,99.90
2022-07-28T00:56:14.218Z,99.90
2022-07-28T00:58:42.416Z,99.90
2022-07-28T01:01:16.028Z,99.90
2022-07-28T01:03:47.756Z,99.90
2022-07-28T01:06:36.803Z,99.90
2022-07-28T01:09:23.360Z,99.90
2022-07-28T01:12:22.783Z,99.90
2022-07-28T01:14:57.138Z,99.90
2022-07-28T01:17:43.557Z,99.90
2022-07-28T01:20:20.652Z,99.90
2022-07-28T01:23:06.668Z,99.90
2022-07-28T01:25:40.751Z,99.90
2022-07-28T01:29:07.842Z,99.90
2022-07-28T01:31:43.159Z,99.90
2022-07-28T01:34:19.033Z,99.90
2022-07-28T01:36:52.680Z,99.90
2022-07-28T01:39:22.047Z,99.90
2022-07-28T01:41:52.344Z,99.90
2022-07-28T01:44:25.233Z,99.90
2022-07-28T01:46:54.905Z,99.90
2022-07-28T01:49:24.896Z,99.90
2022-07-28T01:51:53.750Z,99.90
2022-07-28T01:54:24.825Z,99.90
2022-07-28T01:56:54.631Z,99.90
2022-07-28T01:59:24.310Z,99.90
2022-07-28T02:01:53.411Z,99.90
2022-07-28T02:04:23.354Z,99.90
2022-07-28T02:06:52.929Z,99.90
2022-07-28T02:09:23.116Z,99.90
2022-07-28T02:11:53.383Z,99.90
2022-07-28T02:14:27.660Z,99.90
2022-07-28T02:16:58.915Z,99.90
2022-07-28T02:19:28.244Z,99.90
2022-07-28T02:21:57.858Z,99.90
2022-07-28T02:24:27.074Z,99.90
2022-07-28T02:27:00.977Z,99.90
2022-07-28T02:32:41.158Z,99.90
2022-07-28T02:35:24.744Z,99.90
2022-07-28T02:38:06.644Z,99.90
2022-07-28T02:40:37.456Z,99.90
2022-07-28T02:43:10.456Z,99.90
2022-07-28T02:45:41.851Z,99.90
2022-07-28T02:48:13.398Z,99.90
2022-07-28T02:50:43.054Z,99.90
2022-07-28T02:53:15.747Z,99.90
2022-07-28T02:55:48.980Z,99.90
2022-07-28T02:58:21.155Z,99.90
2022-07-28T03:00:51.072Z,99.90
2022-07-28T03:03:20.044Z,99.90
2022-07-28T03:05:48.797Z,99.90
2022-07-28T03:08:19.934Z,99.90
2022-07-28T03:10:47.805Z,99.90
2022-07-28T03:13:15.684Z,99.90
2022-07-28T03:15:43.538Z,99.90
2022-07-28T03:18:11.278Z,99.90
2022-07-28T03:20:39.127Z,99.90
2022-07-28T03:23:08.259Z,99.90
2022-07-28T03:25:44.710Z,99.90
2022-07-28T03:28:19.601Z,99.90
2022-07-28T03:30:56.162Z,99.90
2022-07-28T03:33:24.557Z,99.90
2022-07-28T03:35:53.754Z,99.90
2022-07-28T03:38:25.950Z,99.90
2022-07-28T03:40:55.789Z,99.90
2022-07-28T03:43:26.281Z,99.90
2022-07-28T03:45:54.029Z,99.90
2022-07-28T03:48:26.264Z,99.90
2022-07-28T03:50:53.985Z,99.90
2022-07-28T03:53:24.712Z,99.90
2022-07-28T03:55:53.739Z,99.90
2022-07-28T03:58:28.996Z,99.90
2022-07-28T04:00:58.022Z,99.90
2022-07-28T04:03:43.099Z,99.90
2022-07-28T04:06:15.545Z,99.90
2022-07-28T04:08:45.350Z,99.90
2022-07-28T04:11:13.294Z,99.90
2022-07-28T04:13:41.087Z,99.90
2022-07-28T04:16:08.957Z,99.90
2022-07-28T04:18:36.835Z,99.90
2022-07-28T04:21:04.962Z,99.90
2022-07-28T04:23:33.042Z,99.90
2022-07-28T04:26:00.823Z,99.90
2022-07-28T04:28:28.645Z,99.90
2022-07-28T04:30:56.482Z,99.90
2022-07-28T04:33:25.061Z,99.90
2022-07-28T04:35:53.379Z,99.90
2022-07-28T04:38:21.436Z,99.90
2022-07-28T04:40:49.897Z,99.90
2022-07-28T04:43:18.222Z,99.90
2022-07-28T04:45:53.198Z,99.90
2022-07-28T04:48:23.606Z,99.90
2022-07-28T04:50:53.368Z,99.90
2022-07-28T04:53:23.440Z,99.90
2022-07-28T04:55:53.626Z,99.90
2022-07-28T04:58:24.011Z,99.90
2022-07-28T05:00:52.151Z,99.90
2022-07-28T05:03:20.856Z,99.90
2022-07-28T05:05:53.979Z,99.90
2022-07-28T05:08:26.176Z,99.90
2022-07-28T05:10:57.205Z,99.90
2022-07-28T05:13:30.412Z,99.90
2022-07-28T05:16:01.561Z,99.90
2022-07-28T05:18:31.298Z,99.90
2022-07-28T05:20:59.125Z,99.90
2022-07-28T05:23:27.036Z,99.90
2022-07-28T05:25:54.820Z,99.90
2022-07-28T05:28:22.970Z,99.90
2022-07-28T05:30:50.960Z,99.90
2022-07-28T05:33:18.926Z,99.90
2022-07-28T05:35:53.454Z,99.90
2022-07-28T05:38:22.331Z,99.90
2022-07-28T05:40:50.539Z,99.90
2022-07-28T05:43:19.621Z,99.90
2022-07-28T05:45:48.586Z,99.90
2022-07-28T05:48:20.658Z,99.90
2022-07-28T05:50:50.155Z,99.90
2022-07-28T05:53:19.571Z,99.90
2022-07-28T05:56:00.760Z,99.90
2022-07-28T05:58:31.647Z,99.90
2022-07-28T06:01:03.239Z,99.90
2022-07-28T06:03:35.896Z,99.90
2022-07-28T06:06:15.084Z,99.90
2022-07-28T06:08:47.885Z,99.90
2022-07-28T06:11:22.197Z,99.90
2022-07-28T06:13:51.680Z,99.90
2022-07-28T06:16:21.263Z,99.90
2022-07-28T06:18:50.563Z,99.90
2022-07-28T06:21:18.619Z,99.90
2022-07-28T06:23:46.449Z,99.90
2022-07-28T06:26:14.468Z,99.90
2022-07-28T06:28:42.304Z,99.90
2022-07-28T06:31:10.244Z,99.90
2022-07-28T06:33:38.600Z,99.90
2022-07-28T06:36:06.740Z,99.90
2022-07-28T06:38:34.748Z,99.90
2022-07-28T06:41:02.540Z,99.90
2022-07-28T06:43:30.694Z,99.90
2022-07-28T06:45:58.677Z,99.90
2022-07-28T06:48:29.319Z,99.90
2022-07-28T06:50:59.851Z,99.90
2022-07-28T06:53:28.055Z,99.90
2022-07-28T06:56:02.620Z,99.90
2022-07-28T06:58:31.943Z,99.90
2022-07-28T07:01:00.095Z,99.90
2022-07-28T07:03:28.007Z,99.90
2022-07-28T07:05:56.012Z,99.90
2022-07-28T07:08:23.767Z,99.90
2022-07-28T07:10:51.701Z,99.90
2022-07-28T07:13:19.538Z,99.90
2022-07-28T07:15:47.459Z,99.90
2022-07-28T07:18:15.366Z,99.90
2022-07-28T07:20:43.401Z,99.90
2022-07-28T07:23:11.169Z,99.90
2022-07-28T07:25:40.194Z,99.90
2022-07-28T07:28:08.038Z,99.90
2022-07-28T07:30:35.792Z,99.90
2022-07-28T07:33:03.662Z,99.90
2022-07-28T07:35:38.064Z,99.90
2022-07-28T07:38:06.417Z,99.90
2022-07-28T07:40:34.314Z,99.90
2022-07-28T07:43:02.250Z,99.90
2022-07-28T07:45:30.260Z,99.90
2022-07-28T07:47:58.141Z,99.90
2022-07-28T07:50:25.864Z,99.90
2022-07-28T07:52:53.734Z,99.90
2022-07-28T07:55:21.629Z,99.90
2022-07-28T07:57:49.395Z,99.90
2022-07-28T08:00:28.801Z,99.90
2022-07-28T08:03:01.206Z,99.90
2022-07-28T08:05:36.057Z,99.90
2022-07-28T08:08:07.770Z,99.90
2022-07-28T08:10:36.558Z,99.90
2022-07-28T08:13:06.403Z,99.90
2022-07-28T08:15:35.281Z,99.90
2022-07-28T08:18:03.698Z,99.90
2022-07-28T08:20:31.505Z,99.90
2022-07-28T08:22:59.325Z,99.90
2022-07-28T08:25:27.334Z,99.90
2022-07-28T08:27:55.222Z,99.90
2022-07-28T08:30:26.269Z,99.90
2022-07-28T08:32:58.117Z,99.90
2022-07-28T08:35:35.419Z,99.90
2022-07-28T08:38:05.582Z,99.90
2022-07-28T08:40:36.725Z,99.90
2022-07-28T08:43:04.774Z,99.90
2022-07-28T08:45:37.086Z,99.90
2022-07-28T08:48:08.799Z,99.90
2022-07-28T08:50:39.543Z,99.90
2022-07-28T08:53:08.887Z,99.90
2022-07-28T08:55:37.847Z,99.90
2022-07-28T08:58:06.179Z,99.90
2022-07-28T09:00:34.070Z,99.90
2022-07-28T09:03:03.696Z,99.90
2022-07-28T09:05:32.401Z,99.90
2022-07-28T09:08:01.149Z,99.90
2022-07-28T09:10:28.980Z,99.90
2022-07-28T09:12:56.710Z,99.90
2022-07-28T09:15:24.745Z,99.90
2022-07-28T09:17:52.663Z,99.20
2022-07-28T09:20:20.843Z,98.90
2022-07-28T09:23:03.652Z,99.90
2022-07-28T09:25:31.802Z,99.50
2022-07-28T09:28:10.702Z,99.20
2022-07-28T09:30:51.833Z,99.70
2022-07-28T09:33:42.530Z,99.90
2022-07-28T09:36:16.202Z,98.90
2022-07-28T09:38:45.117Z,99.00
2022-07-28T09:41:13.268Z,99.00
2022-07-28T09:43:47.004Z,99.00
2022-07-28T09:46:23.676Z,98.40
2022-07-28T09:48:59.279Z,97.60
2022-07-28T09:51:29.316Z,97.50
2022-07-28T09:54:20.501Z,98.30
2022-07-28T09:56:48.475Z,98.10
2022-07-28T09:59:18.417Z,98.50
2022-07-28T10:02:02.864Z,98.00
2022-07-28T10:04:35.429Z,98.00
2022-07-28T10:07:15.937Z,97.80
2022-07-28T10:09:44.363Z,96.70
2022-07-28T10:12:23.542Z,96.60
2022-07-28T10:14:53.712Z,96.50
2022-07-28T10:17:32.792Z,96.40
2022-07-28T10:20:06.238Z,97.60
2022-07-28T10:22:39.514Z,97.90
2022-07-28T10:25:12.907Z,97.30
2022-07-28T10:27:42.064Z,97.70
2022-07-28T10:30:11.193Z,98.20
2022-07-28T10:32:42.660Z,96.80
2022-07-28T10:35:17.195Z,96.90
2022-07-28T10:37:52.785Z,97.00
2022-07-28T10:40:27.110Z,97.10
2022-07-28T10:42:56.668Z,97.90
2022-07-28T10:45:42.037Z,97.90
2022-07-28T10:48:13.967Z,96.80
2022-07-28T10:50:42.311Z,97.40
2022-07-28T10:53:14.756Z,97.40
2022-07-28T10:55:51.011Z,97.10
2022-07-28T10:59:04.725Z,97.10
2022-07-28T11:01:49.712Z,96.60
2022-07-28T11:04:45.416Z,96.00
2022-07-28T11:07:18.158Z,96.80
2022-07-28T11:09:49.894Z,96.70
2022-07-28T11:12:53.966Z,95.80
2022-07-28T11:15:32.506Z,95.90
2022-07-28T11:18:08.822Z,95.70
2022-07-28T11:20:58.555Z,95.40
2022-07-28T11:23:46.818Z,95.70
2022-07-28T11:26:39.270Z,96.20
2022-07-28T11:29:14.158Z,95.20
2022-07-28T11:31:45.237Z,96.20
2022-07-28T11:34:17.874Z,96.60
2022-07-28T11:37:15.246Z,95.90
2022-07-28T11:39:44.221Z,95.20
2022-07-28T11:42:28.241Z,95.50
2022-07-28T11:44:58.111Z,94.20
2022-07-28T11:47:28.622Z,94.70
2022-07-28T11:50:17.048Z,95.60
2022-07-28T11:52:56.878Z,94.30
2022-07-28T11:55:55.849Z,94.90
2022-07-28T11:58:25.617Z,94.20
2022-07-28T12:01:17.355Z,95.30
2022-07-28T12:03:50.401Z,93.30
2022-07-28T12:06:28.827Z,92.90
2022-07-28T12:09:00.316Z,92.90
2022-07-28T12:11:31.925Z,92.90
2022-07-28T12:14:08.118Z,93.90
2022-07-28T12:16:38.347Z,93.60
2022-07-28T12:19:08.821Z,93.40
2022-07-28T12:21:47.680Z,93.40
2022-07-28T12:24:19.350Z,93.20
2022-07-28T12:26:50.034Z,93.00
2022-07-28T12:29:19.754Z,94.40
2022-07-28T12:32:02.234Z,94.00
2022-07-28T12:34:32.755Z,93.70
2022-07-28T12:37:02.523Z,92.40
2022-07-28T12:39:32.705Z,92.40
2022-07-28T12:42:04.574Z,92.10
2022-07-28T12:44:37.188Z,92.10
2022-07-28T12:47:08.009Z,93.10
2022-07-28T12:49:37.741Z,93.40
2022-07-28T12:52:22.404Z,92.90
2022-07-28T12:54:54.651Z,94.10
2022-07-28T12:57:49.814Z,93.60
2022-07-28T13:00:22.008Z,93.70
2022-07-28T13:02:51.759Z,94.50
2022-07-28T13:05:29.817Z,94.70
2022-07-28T13:08:06.207Z,95.50
2022-07-28T13:10:34.083Z,95.00
2022-07-28T13:13:06.696Z,94.40
2022-07-28T13:15:35.106Z,94.60
2022-07-28T13:18:03.100Z,94.90
2022-07-28T13:20:35.033Z,94.30
2022-07-28T13:23:02.861Z,94.20
2022-07-28T13:25:30.782Z,93.80
2022-07-28T13:27:59.978Z,93.80
2022-07-28T13:30:27.749Z,94.50
2022-07-28T13:32:56.844Z,94.80
2022-07-28T13:35:24.863Z,94.20
2022-07-28T13:37:52.740Z,94.50
2022-07-28T13:40:20.764Z,93.10
2022-07-28T13:42:52.487Z,93.50
2022-07-28T13:45:22.189Z,93.70
2022-07-28T13:47:52.139Z,93.80
2022-07-28T13:50:20.655Z,91.80
2022-07-28T13:52:48.839Z,91.90
2022-07-28T13:55:19.711Z,91.90
2022-07-28T13:57:51.620Z,92.50
2022-07-28T14:00:22.637Z,92.90
2022-07-28T14:02:52.068Z,92.00
2022-07-28T14:05:20.176Z,91.30
2022-07-28T14:07:49.665Z,92.20
2022-07-28T14:10:18.578Z,92.80
2022-07-28T14:12:46.814Z,93.10
2022-07-28T14:15:15.553Z,92.90
2022-07-28T14:17:46.020Z,92.90
2022-07-28T14:20:15.328Z,92.70
2022-07-28T14:22:44.626Z,92.90
2022-07-28T14:25:20.748Z,92.40
2022-07-28T14:27:50.956Z,93.20
2022-07-28T14:30:20.753Z,93.30
2022-07-28T14:32:49.576Z,93.80
2022-07-28T14:35:18.025Z,92.60
2022-07-28T14:38:35.145Z,93.40
2022-07-28T14:40:36.508Z,93.10
2022-07-28T14:43:08.154Z,92.90
2022-07-28T14:45:51.342Z,92.40
2022-07-28T14:48:24.285Z,93.20
2022-07-28T14:50:52.666Z,93.50
2022-07-28T14:53:22.333Z,93.40
2022-07-28T14:55:50.225Z,93.10
2022-07-28T14:58:18.297Z,93.80
2022-07-28T15:00:46.286Z,93.90
2022-07-28T15:03:14.533Z,94.60
2022-07-28T15:05:42.458Z,94.40
2022-07-28T15:08:10.382Z,93.90
2022-07-28T15:10:38.357Z,93.90
2022-07-28T15:13:06.374Z,93.30
2022-07-28T15:15:34.966Z,94.10
2022-07-28T15:18:03.901Z,94.40
2022-07-28T15:20:31.750Z,94.70
2022-07-28T15:22:59.495Z,95.00
2022-07-28T15:25:27.295Z,94.20
2022-07-28T15:27:55.513Z,93.80
2022-07-28T15:30:23.889Z,94.20
2022-07-28T15:32:57.143Z,94.40
2022-07-28T15:35:26.081Z,94.70
2022-07-28T15:37:54.877Z,94.40
2022-07-28T15:40:23.563Z,94.10
2022-07-28T15:42:53.054Z,93.90
2022-07-28T15:45:21.030Z,93.80
2022-07-28T15:47:49.275Z,92.20
2022-07-28T15:50:17.517Z,92.70
2022-07-28T15:52:45.561Z,92.70
2022-07-28T15:55:13.589Z,92.40
2022-07-28T15:57:41.419Z,92.30
2022-07-28T16:00:09.844Z,92.60
2022-07-28T16:02:37.778Z,92.80
2022-07-28T16:05:06.298Z,92.50
2022-07-28T16:07:35.961Z,93.20
2022-07-28T16:10:04.821Z,93.20
2022-07-28T16:12:33.661Z,93.70
2022-07-28T16:15:01.826Z,93.90
2022-07-28T16:17:29.717Z,93.30
2022-07-28T16:20:02.385Z,93.60
2022-07-28T16:22:30.927Z,94.20
2022-07-28T16:24:59.005Z,94.50
2022-07-28T16:27:27.595Z,95.00
2022-07-28T16:29:55.827Z,95.50
2022-07-28T16:32:24.511Z,95.50
2022-07-28T16:34:53.943Z,95.80
2022-07-28T16:37:21.824Z,95.80
2022-07-28T16:39:49.814Z,96.50
2022-07-28T16:42:18.102Z,96.50
2022-07-28T16:44:46.156Z,96.50
2022-07-28T16:47:14.331Z,95.60
2022-07-28T16:49:45.904Z,95.70
2022-07-28T16:52:15.286Z,95.50
2022-07-28T16:54:43.603Z,95.40
2022-07-28T16:57:11.731Z,94.70
2022-07-28T16:59:48.505Z,95.20
2022-07-28T17:02:19.335Z,95.70
2022-07-28T17:04:47.762Z,95.80
2022-07-28T17:07:15.775Z,95.60
2022-07-28T17:09:44.478Z,95.60
2022-07-28T17:12:12.489Z,95.60
2022-07-28T17:14:40.275Z,95.90
2022-07-28T17:17:08.151Z,96.20
2022-07-28T17:19:36.094Z,96.80
2022-07-28T17:22:07.188Z,97.30
2022-07-28T17:24:35.222Z,97.40
2022-07-28T17:29:51.526Z,99.40
2022-07-28T17:32:19.651Z,99.90
2022-07-28T17:34:47.979Z,99.70
2022-07-28T17:37:15.816Z,99.90
2022-07-28T17:39:43.819Z,99.90
2022-07-28T17:42:11.630Z,99.90
2022-07-28T17:44:39.653Z,99.90
2022-07-28T17:47:07.606Z,99.90
2022-07-28T17:49:39.823Z,99.90
2022-07-28T17:52:10.058Z,99.90
2022-07-28T17:54:57.239Z,99.90
2022-07-28T17:57:25.595Z,99.90
2022-07-28T17:59:55.130Z,99.90
2022-07-28T18:02:23.028Z,99.90
2022-07-28T18:04:50.915Z,99.90
2022-07-28T18:07:18.786Z,99.90
2022-07-28T18:09:46.697Z,99.90
2022-07-28T18:12:14.484Z,99.90
2022-07-28T18:14:42.291Z,99.90
2022-07-28T18:17:10.028Z,99.90
2022-07-28T18:19:40.937Z,99.90
2022-07-28T18:22:12.859Z,99.90
2022-07-28T18:24:40.815Z,99.90
2022-07-28T18:27:08.891Z,99.90
2022-07-28T18:29:38.225Z,99.90
2022-07-28T18:32:09.662Z,99.90
2022-07-28T18:34:40.503Z,99.90
2022-07-28T18:37:08.315Z,99.90
2022-07-28T18:39:36.290Z,99.90
2022-07-28T18:42:04.559Z,99.90
2022-07-28T18:44:32.935Z,99.90
2022-07-28T18:47:01.961Z,99.90
2022-07-28T18:49:37.775Z,99.90
2022-07-28T18:52:07.010Z,99.90
2022-07-28T18:54:35.709Z,99.90
2022-07-28T18:57:03.570Z,99.90
2022-07-28T18:59:32.670Z,99.90
2022-07-28T19:02:00.622Z,99.90
2022-07-28T19:04:28.684Z,99.90
2022-07-28T19:06:56.659Z,99.90
2022-07-28T19:09:24.582Z,99.90
2022-07-28T19:11:52.383Z,99.90
2022-07-28T19:14:20.649Z,99.90
2022-07-28T19:16:48.806Z,99.90
2022-07-28T19:19:16.776Z,99.90
2022-07-28T19:21:45.289Z,99.90
2022-07-28T19:24:17.222Z,99.90
2022-07-28T19:26:46.938Z,99.90
2022-07-28T19:29:14.751Z,99.90
2022-07-28T19:31:42.994Z,99.90
2022-07-28T19:34:11.250Z,99.90
2022-07-28T19:36:41.948Z,99.90
2022-07-28T19:39:10.700Z,99.90
2022-07-28T19:41:39.342Z,99.90
2022-07-28T19:44:07.736Z,99.90
2022-07-28T19:46:35.892Z,99.90
2022-07-28T19:49:07.733Z,99.90
2022-07-28T19:51:36.231Z,99.90
2022-07-28T19:54:05.347Z,99.90
2022-07-28T19:56:33.818Z,99.90
2022-07-28T19:59:02.361Z,99.90
2022-07-28T20:01:30.290Z,99.90
2022-07-28T20:04:03.181Z,99.90
2022-07-28T20:06:33.456Z,99.90
2022-07-28T20:09:02.256Z,99.90
2022-07-28T20:11:30.359Z,99.90
2022-07-28T20:13:58.259Z,99.90
2022-07-28T20:16:26.669Z,99.90
2022-07-28T20:18:54.550Z,99.90
2022-07-28T20:21:24.293Z,99.90
2022-07-28T20:23:55.438Z,99.90
2022-07-28T20:26:29.001Z,99.90
2022-07-28T20:29:02.040Z,99.90
2022-07-28T20:31:30.617Z,99.90
2022-07-28T20:33:58.697Z,99.90
2022-07-28T20:36:29.834Z,99.90
2022-07-28T20:38:58.290Z,99.90
2022-07-28T20:41:26.471Z,99.90
2022-07-28T20:44:26.222Z,99.90
2022-07-28T20:46:43.001Z,99.90
2022-07-28T20:49:11.199Z,99.90
2022-07-28T20:51:39.121Z,99.90
2022-07-28T20:54:07.166Z,99.90
2022-07-28T20:56:35.092Z,99.90
2022-07-28T20:59:06.776Z,99.90
2022-07-28T21:01:34.881Z,99.90
2022-07-28T21:04:02.640Z,99.90
2022-07-28T21:06:30.908Z,99.90
2022-07-28T21:09:00.900Z,99.90
2022-07-28T21:11:29.400Z,99.90
2022-07-28T21:14:03.544Z,99.90
2022-07-28T21:16:32.419Z,99.90
2022-07-28T21:19:00.579Z,99.90
2022-07-28T21:21:29.203Z,99.90
2022-07-28T21:23:57.045Z,99.90
2022-07-28T21:26:24.829Z,99.90
2022-07-28T21:29:11.002Z,99.90
2022-07-28T21:32:05.241Z,99.90
2022-07-28T21:34:30.436Z,99.90
2022-07-28T21:36:58.953Z,99.90
2022-07-28T21:39:26.742Z,99.90
2022-07-28T21:41:54.559Z,99.90
2022-07-28T21:44:23.183Z,99.90
2022-07-28T21:46:51.308Z,99.90
2022-07-28T21:49:19.198Z,99.90
2022-07-28T21:51:47.346Z,99.90
2022-07-28T21:54:15.436Z,99.90
2022-07-28T21:56:43.475Z,99.90
2022-07-28T21:59:11.245Z,99.90
2022-07-28T22:01:39.163Z,99.90
2022-07-28T22:04:07.113Z,99.90
2022-07-28T22:06:34.855Z,99.90
2022-07-28T22:09:02.859Z,99.90
2022-07-28T22:11:30.972Z,99.90
2022-07-28T22:13:58.772Z,99.90
2022-07-28T22:16:26.699Z,99.90
2022-07-28T22:18:54.500Z,99.90
2022-07-28T22:21:22.292Z,99.90
2022-07-28T22:23:51.038Z,99.90
2022-07-28T22:26:18.898Z,99.90
2022-07-28T22:28:46.824Z,99.90
2022-07-28T22:31:15.374Z,99.90
2022-07-28T22:33:43.340Z,99.90
2022-07-28T22:36:11.008Z,99.90
2022-07-28T22:38:39.542Z,99.90
2022-07-28T22:41:07.356Z,99.90
2022-07-28T22:43:35.815Z,99.90
2022-07-28T22:46:03.986Z,99.90
2022-07-28T22:48:32.209Z,99.90
2022-07-28T22:50:59.976Z,99.90
2022-07-28T22:53:27.813Z,99.90
2022-07-28T22:58:40.939Z,99.90
2022-07-28T23:01:08.935Z,99.90
2022-07-28T23:03:37.298Z,99.90
2022-07-28T23:06:06.220Z,99.90
2022-07-28T23:08:34.084Z,99.90
2022-07-28T23:11:02.235Z,99.90
2022-07-28T23:13:30.142Z,99.90
2022-07-28T23:15:58.067Z,99.90
2022-07-28T23:18:26.091Z,99.90
2022-07-28T23:20:53.953Z,99.90
2022-07-28T23:23:21.790Z,99.90
2022-07-28T23:25:49.699Z,99.90
2022-07-28T23:28:17.587Z,99.90
2022-07-28T23:30:47.567Z,99.90
2022-07-28T23:33:56.632Z,99.90
2022-07-28T23:36:04.913Z,99.90
2022-07-28T23:38:32.793Z,99.90
2022-07-28T23:41:00.901Z,99.90
2022-07-28T23:43:30.796Z,99.90
2022-07-28T23:45:58.780Z,99.90
2022-07-28T23:48:26.700Z,99.90
2022-07-28T23:50:54.667Z,99.90
2022-07-28T23:53:22.499Z,99.90
2022-07-28T23:55:50.745Z,99.90
2022-07-28T23:58:18.605Z,99.90
